createdAt,value
2023-11-18T00:02:02.713Z,84.03
2023-11-18T00:04:29.698Z,84.36
2023-11-18T00:06:58.547Z,84.35
2023-11-18T00:09:26.150Z,84.51
2023-11-18T00:11:53.360Z,84.34
2023-11-18T00:14:22.010Z,84.30
2023-11-18T00:16:49.086Z,84.31
2023-11-18T00:19:16.065Z,84.04
2023-11-18T00:21:43.948Z,83.78
2023-11-18T00:24:11.010Z,83.39
2023-11-18T00:26:38.060Z,83.16
2023-11-18T00:29:05.513Z,83.15
2023-11-18T00:31:32.579Z,83.23
2023-11-18T00:33:59.612Z,83.16
2023-11-18T00:36:26.661Z,83.09
2023-11-18T00:38:53.579Z,82.73
2023-11-18T00:41:20.919Z,82.42
2023-11-18T00:43:47.813Z,82.42
2023-11-18T00:46:14.828Z,82.35
2023-11-18T00:48:41.892Z,82.60
2023-11-18T00:51:08.933Z,82.96
2023-11-18T00:53:35.786Z,83.19
2023-11-18T00:56:03.081Z,83.54
2023-11-18T00:58:30.312Z,83.90
2023-11-18T01:00:57.286Z,84.01
2023-11-18T01:03:24.414Z,84.30
2023-11-18T01:05:52.097Z,84.43
2023-11-18T01:08:19.659Z,84.22
2023-11-18T01:10:46.629Z,84.03
2023-11-18T01:13:13.575Z,83.39
2023-11-18T01:15:40.918Z,83.33
2023-11-18T01:18:08.133Z,83.38
2023-11-18T01:20:35.215Z,83.43
2023-11-18T01:23:02.157Z,83.43
2023-11-18T01:25:29.112Z,83.51
2023-11-18T01:27:55.841Z,83.76
2023-11-18T01:30:25.152Z,83.97
2023-11-18T01:32:52.416Z,84.30
2023-11-18T01:35:20.816Z,84.29
2023-11-18T01:37:49.510Z,84.32
2023-11-18T01:40:16.893Z,84.08
2023-11-18T01:42:47.854Z,84.02
2023-11-18T01:45:15.434Z,83.77
2023-11-18T01:47:42.440Z,83.50
2023-11-18T01:50:09.836Z,82.80
2023-11-18T01:52:36.949Z,82.95
2023-11-18T01:55:08.166Z,83.02
2023-11-18T01:57:35.585Z,83.13
2023-11-18T02:00:07.628Z,83.16
2023-11-18T02:02:36.273Z,83.21
2023-11-18T02:05:03.745Z,83.02
2023-11-18T02:07:30.638Z,82.91
2023-11-18T02:09:57.778Z,83.04
2023-11-18T02:13:02.440Z,82.76
2023-11-18T02:15:29.520Z,82.88
2023-11-18T02:17:56.465Z,83.11
2023-11-18T02:20:25.037Z,83.34
2023-11-18T02:22:52.111Z,83.54
2023-11-18T02:25:19.770Z,83.67
2023-11-18T02:27:47.361Z,83.84
2023-11-18T02:30:14.721Z,84.05
2023-11-18T02:32:57.906Z,82.96
2023-11-18T02:35:32.331Z,82.45
2023-11-18T02:37:59.748Z,82.55
2023-11-18T02:40:34.138Z,82.85
2023-11-18T02:43:01.916Z,82.20
2023-11-18T02:45:28.707Z,82.72
2023-11-18T02:47:58.926Z,82.67
2023-11-18T02:50:26.694Z,82.89
2023-11-18T02:52:53.609Z,82.66
2023-11-18T02:55:22.396Z,79.72
2023-11-18T02:57:49.180Z,77.53
2023-11-18T03:00:34.519Z,77.37
2023-11-18T03:03:01.724Z,77.80
2023-11-18T03:05:28.539Z,78.08
2023-11-18T03:07:59.538Z,77.13
2023-11-18T03:10:26.695Z,75.68
2023-11-18T03:12:54.853Z,75.47
2023-11-18T03:15:23.066Z,76.85
2023-11-18T03:17:51.820Z,75.65
2023-11-18T03:20:19.303Z,75.48
2023-11-18T03:22:47.102Z,76.21
2023-11-18T03:25:17.331Z,77.17
2023-11-18T03:27:45.651Z,77.22
2023-11-18T03:30:12.861Z,76.13
2023-11-18T03:32:41.405Z,76.71
2023-11-18T03:35:10.764Z,76.63
2023-11-18T03:37:43.019Z,75.47
2023-11-18T03:40:14.705Z,75.87
2023-11-18T03:42:47.660Z,75.00
2023-11-18T03:45:16.762Z,75.93
2023-11-18T03:47:43.793Z,75.76
2023-11-18T03:50:11.560Z,75.54
2023-11-18T03:52:39.489Z,75.69
2023-11-18T03:55:06.787Z,76.20
2023-11-18T03:57:33.720Z,76.92
2023-11-18T04:00:00.659Z,76.47
2023-11-18T04:02:27.819Z,76.41
2023-11-18T04:04:56.116Z,77.49
2023-11-18T04:07:23.643Z,77.20
2023-11-18T04:09:50.802Z,76.35
2023-11-18T04:12:17.607Z,75.48
2023-11-18T04:14:44.396Z,76.67
2023-11-18T04:17:11.634Z,78.08
2023-11-18T04:19:40.406Z,77.97
2023-11-18T04:22:07.376Z,77.17
2023-11-18T04:24:36.467Z,75.37
2023-11-18T04:27:03.638Z,76.03
2023-11-18T04:29:31.434Z,76.33
2023-11-18T04:31:58.771Z,76.02
2023-11-18T04:34:26.319Z,75.77
2023-11-18T04:36:53.200Z,76.06
2023-11-18T04:39:21.749Z,75.99
2023-11-18T04:41:48.639Z,76.27
2023-11-18T04:44:17.687Z,76.20
2023-11-18T04:46:46.129Z,76.66
2023-11-18T04:49:13.079Z,76.82
2023-11-18T04:51:39.948Z,77.52
2023-11-18T04:54:09.260Z,77.66
2023-11-18T04:56:39.162Z,77.65
2023-11-18T04:59:06.772Z,76.77
2023-11-18T05:01:34.334Z,77.18
2023-11-18T05:04:01.606Z,77.44
2023-11-18T05:06:28.783Z,76.48
2023-11-18T05:08:55.982Z,77.27
2023-11-18T05:11:23.364Z,77.14
2023-11-18T05:13:50.759Z,77.67
2023-11-18T05:16:17.766Z,77.96
2023-11-18T05:18:45.270Z,77.27
2023-11-18T05:21:12.625Z,77.08
2023-11-18T05:23:39.864Z,77.42
2023-11-18T05:26:07.416Z,77.04
2023-11-18T05:28:34.849Z,78.15
2023-11-18T05:31:04.961Z,78.14
2023-11-18T05:33:32.939Z,78.13
2023-11-18T05:35:59.923Z,77.48
2023-11-18T05:38:29.208Z,77.96
2023-11-18T05:41:00.726Z,78.06
2023-11-18T05:43:31.155Z,77.49
2023-11-18T05:46:22.214Z,77.72
2023-11-18T05:48:50.076Z,78.19
2023-11-18T05:51:20.612Z,78.31
2023-11-18T05:53:48.338Z,78.42
2023-11-18T05:56:15.514Z,78.57
2023-11-18T05:58:44.705Z,78.86
2023-11-18T06:01:12.417Z,79.06
2023-11-18T06:03:40.670Z,78.79
2023-11-18T06:06:12.521Z,77.22
2023-11-18T06:08:43.040Z,76.49
2023-11-18T06:11:17.108Z,76.85
2023-11-18T06:13:47.924Z,77.16
2023-11-18T06:16:22.220Z,77.54
2023-11-18T06:18:56.045Z,77.96
2023-11-18T06:21:30.144Z,77.40
2023-11-18T06:23:57.379Z,77.58
2023-11-18T06:26:28.307Z,78.19
2023-11-18T06:28:56.078Z,77.70
2023-11-18T06:31:25.485Z,77.75
2023-11-18T06:33:52.627Z,77.18
2023-11-18T06:36:20.775Z,77.79
2023-11-18T06:38:48.343Z,76.67
2023-11-18T06:41:17.963Z,77.43
2023-11-18T06:44:10.702Z,77.40
2023-11-18T06:46:41.800Z,77.29
2023-11-18T06:49:12.646Z,77.76
2023-11-18T06:51:40.350Z,77.86
2023-11-18T06:54:10.677Z,77.92
2023-11-18T06:56:39.390Z,77.86
2023-11-18T06:59:08.160Z,78.04
2023-11-18T07:01:37.307Z,76.87
2023-11-18T07:04:05.270Z,76.15
2023-11-18T07:06:32.531Z,75.52
2023-11-18T07:09:02.443Z,74.31
2023-11-18T07:11:29.226Z,75.59
2023-11-18T07:14:00.594Z,74.73
2023-11-18T07:16:27.871Z,74.36
2023-11-18T07:18:54.793Z,74.53
2023-11-18T07:21:22.275Z,73.87
2023-11-18T07:23:49.151Z,73.18
2023-11-18T07:26:16.278Z,73.25
2023-11-18T07:28:45.294Z,73.64
2023-11-18T07:31:12.576Z,73.29
2023-11-18T07:33:42.017Z,72.46
2023-11-18T07:36:12.543Z,72.25
2023-11-18T07:38:39.575Z,72.17
2023-11-18T07:41:10.017Z,72.79
2023-11-18T07:43:41.806Z,71.37
2023-11-18T07:46:09.630Z,71.21
2023-11-18T07:48:36.730Z,72.26
2023-11-18T07:51:03.727Z,71.05
2023-11-18T07:53:31.101Z,69.91
2023-11-18T07:55:57.999Z,71.32
2023-11-18T07:58:24.884Z,70.73
2023-11-18T08:00:51.986Z,70.95
2023-11-18T08:03:19.043Z,70.50
2023-11-18T08:05:46.361Z,70.33
2023-11-18T08:08:19.043Z,70.03
2023-11-18T08:10:46.256Z,70.21
2023-11-18T08:13:14.762Z,69.65
2023-11-18T08:15:42.719Z,69.02
2023-11-18T08:18:11.736Z,68.42
2023-11-18T08:20:38.922Z,68.82
2023-11-18T08:23:08.509Z,67.72
2023-11-18T08:25:37.318Z,67.61
2023-11-18T08:28:08.430Z,66.80
2023-11-18T08:30:36.022Z,67.94
2023-11-18T08:33:06.613Z,67.16
2023-11-18T08:35:33.963Z,67.38
2023-11-18T08:38:02.158Z,65.93
2023-11-18T08:40:29.323Z,65.31
2023-11-18T08:42:57.493Z,65.98
2023-11-18T08:45:30.360Z,65.01
2023-11-18T08:47:58.195Z,65.78
2023-11-18T08:50:27.138Z,64.76
2023-11-18T08:52:59.659Z,65.43
2023-11-18T08:55:52.349Z,65.11
2023-11-18T08:58:29.709Z,63.19
2023-11-18T09:01:07.610Z,64.65
2023-11-18T09:03:38.123Z,63.35
2023-11-18T09:06:07.504Z,64.25
2023-11-18T09:08:39.908Z,64.44
2023-11-18T09:11:08.070Z,63.53
2023-11-18T09:13:36.462Z,64.23
2023-11-18T09:16:10.597Z,64.24
2023-11-18T09:18:43.066Z,62.85
2023-11-18T09:21:16.678Z,63.69
2023-11-18T09:23:44.550Z,62.22
2023-11-18T09:26:11.982Z,62.98
2023-11-18T09:28:39.518Z,61.65
2023-11-18T09:31:06.663Z,62.93
2023-11-18T09:33:34.249Z,63.79
2023-11-18T09:36:08.578Z,60.81
2023-11-18T09:38:41.552Z,61.04
2023-11-18T09:41:14.899Z,59.28
2023-11-18T09:43:49.519Z,60.03
2023-11-18T09:46:25.766Z,60.12
2023-11-18T09:49:18.395Z,60.70
2023-11-18T09:51:48.246Z,59.62
2023-11-18T09:54:45.520Z,60.82
2023-11-18T09:57:19.771Z,60.00
2023-11-18T10:00:12.103Z,59.65
2023-11-18T10:02:41.600Z,59.41
2023-11-18T10:05:13.727Z,58.76
2023-11-18T10:07:42.511Z,60.57
2023-11-18T10:10:16.095Z,58.70
2023-11-18T10:12:46.832Z,57.47
2023-11-18T10:15:15.816Z,59.39
2023-11-18T10:18:01.096Z,58.35
2023-11-18T10:26:37.527Z,58.70
2023-11-18T10:30:54.008Z,58.18
2023-11-18T10:33:20.902Z,59.99
2023-11-18T10:35:57.164Z,57.12
2023-11-18T10:38:26.746Z,57.08
2023-11-18T10:40:57.705Z,55.92
2023-11-18T10:43:29.994Z,56.02
2023-11-18T10:46:16.293Z,57.37
2023-11-18T10:51:36.111Z,56.58
2023-11-18T10:56:49.078Z,58.80
2023-11-18T10:59:20.071Z,58.94
2023-11-18T11:01:50.710Z,58.59
2023-11-18T11:04:23.752Z,59.51
2023-11-18T11:06:54.516Z,58.34
2023-11-18T11:09:25.947Z,59.29
2023-11-18T11:11:57.227Z,57.50
2023-11-18T11:14:36.716Z,59.43
2023-11-18T11:17:18.657Z,58.35
2023-11-18T11:20:24.470Z,57.84
2023-11-18T11:23:19.442Z,57.94
2023-11-18T11:26:10.503Z,58.26
2023-11-18T11:28:44.644Z,59.49
2023-11-18T11:31:23.624Z,59.69
2023-11-18T11:34:00.094Z,58.67
2023-11-18T11:36:34.674Z,59.48
2023-11-18T11:39:02.271Z,59.53
2023-11-18T11:41:29.056Z,59.89
2023-11-18T11:44:00.230Z,60.91
2023-11-18T11:46:34.294Z,60.86
2023-11-18T11:49:02.727Z,60.98
2023-11-18T11:51:32.955Z,59.70
2023-11-18T11:54:15.955Z,60.77
2023-11-18T11:56:50.568Z,60.19
2023-11-18T11:59:17.774Z,61.12
2023-11-18T12:02:33.983Z,60.13
2023-11-18T12:05:00.992Z,60.83
2023-11-18T12:07:33.414Z,61.09
2023-11-18T12:10:00.881Z,60.73
2023-11-18T12:12:28.321Z,61.18
2023-11-18T12:15:13.635Z,60.96
2023-11-18T12:17:52.766Z,62.05
2023-11-18T12:20:43.982Z,61.07
2023-11-18T12:23:16.963Z,61.71
2023-11-18T12:25:44.191Z,60.57
2023-11-18T12:28:17.655Z,60.93
2023-11-18T12:30:53.448Z,59.87
2023-11-18T12:33:20.989Z,59.98
2023-11-18T12:36:01.058Z,59.64
2023-11-18T12:39:04.932Z,60.36
2023-11-18T12:41:41.527Z,60.33
2023-11-18T12:44:23.588Z,59.95
2023-11-18T12:46:51.165Z,58.19
2023-11-18T12:49:18.475Z,57.99
2023-11-18T12:51:45.225Z,56.63
2023-11-18T12:54:13.312Z,57.30
2023-11-18T12:56:40.324Z,56.22
2023-11-18T12:59:07.826Z,54.86
2023-11-18T13:01:37.548Z,53.68
2023-11-18T13:04:04.804Z,54.06
2023-11-18T13:06:31.714Z,53.18
2023-11-18T13:08:59.414Z,50.81
2023-11-18T13:11:26.354Z,51.83
2023-11-18T13:13:53.388Z,51.15
2023-11-18T13:16:20.396Z,51.13
2023-11-18T13:18:50.617Z,51.56
2023-11-18T13:21:18.084Z,52.52
2023-11-18T13:23:53.863Z,52.04
2023-11-18T13:26:21.205Z,53.80
2023-11-18T13:28:49.637Z,53.68
2023-11-18T13:31:20.321Z,54.84
2023-11-18T13:33:50.465Z,56.00
2023-11-18T13:36:17.742Z,55.51
2023-11-18T13:38:45.357Z,56.97
2023-11-18T13:41:13.051Z,57.57
2023-11-18T13:43:46.857Z,57.75
2023-11-18T13:46:19.571Z,58.92
2023-11-18T13:48:52.697Z,59.96
2023-11-18T13:51:20.785Z,60.38
2023-11-18T13:53:47.930Z,60.53
2023-11-18T13:56:16.805Z,61.09
2023-11-18T13:58:46.713Z,61.73
2023-11-18T14:01:17.443Z,61.66
2023-11-18T14:03:45.317Z,62.42
2023-11-18T14:06:12.288Z,63.24
2023-11-18T14:08:40.232Z,62.67
2023-11-18T14:11:13.367Z,63.00
2023-11-18T14:13:43.237Z,62.69
2023-11-18T14:16:11.688Z,63.64
2023-11-18T14:18:38.661Z,63.95
2023-11-18T14:21:06.992Z,63.76
2023-11-18T14:23:34.069Z,63.51
2023-11-18T14:26:01.079Z,63.54
2023-11-18T14:28:28.859Z,63.16
2023-11-18T14:30:55.799Z,62.54
2023-11-18T14:33:22.677Z,63.45
2023-11-18T14:35:49.945Z,63.94
2023-11-18T14:38:17.218Z,63.51
2023-11-18T14:40:44.170Z,63.36
2023-11-18T14:43:11.109Z,63.12
2023-11-18T14:45:38.701Z,62.96
2023-11-18T14:48:06.601Z,62.88
2023-11-18T14:50:33.701Z,64.04
2023-11-18T14:53:01.441Z,63.73
2023-11-18T14:55:29.357Z,63.73
2023-11-18T14:57:59.141Z,63.77
2023-11-18T15:00:28.395Z,63.91
2023-11-18T15:03:00.377Z,64.23
2023-11-18T15:05:28.904Z,64.28
2023-11-18T15:07:56.531Z,65.33
2023-11-18T15:10:24.783Z,64.59
2023-11-18T15:12:56.117Z,65.10
2023-11-18T15:15:34.012Z,64.62
2023-11-18T15:18:05.766Z,65.11
2023-11-18T15:20:32.889Z,64.95
2023-11-18T15:23:00.122Z,64.90
2023-11-18T15:25:28.254Z,64.90
2023-11-18T15:27:55.328Z,64.97
2023-11-18T15:30:25.869Z,65.02
2023-11-18T15:32:53.395Z,64.23
2023-11-18T15:35:22.467Z,64.20
2023-11-18T15:37:49.950Z,64.92
2023-11-18T15:40:20.995Z,64.80
2023-11-18T15:42:50.085Z,65.21
2023-11-18T15:45:22.608Z,65.31
2023-11-18T15:47:50.217Z,64.82
2023-11-18T15:50:18.283Z,64.83
2023-11-18T15:52:54.397Z,65.60
2023-11-18T15:55:22.557Z,65.58
2023-11-18T15:57:56.549Z,65.80
2023-11-18T16:00:27.449Z,67.68
2023-11-18T16:03:02.155Z,65.65
2023-11-18T16:05:35.637Z,65.66
2023-11-18T16:08:03.742Z,65.32
2023-11-18T16:10:31.661Z,65.10
2023-11-18T16:12:59.408Z,65.11
2023-11-18T16:15:27.588Z,65.04
2023-11-18T16:17:55.572Z,64.78
2023-11-18T16:20:24.589Z,64.53
2023-11-18T16:22:52.543Z,64.58
2023-11-18T16:25:29.154Z,63.91
2023-11-18T16:28:00.426Z,64.28
2023-11-18T16:30:31.241Z,63.85
2023-11-18T16:32:59.184Z,64.40
2023-11-18T16:35:27.236Z,63.83
2023-11-18T16:37:54.792Z,64.92
2023-11-18T16:40:22.387Z,64.55
2023-11-18T16:42:51.940Z,64.74
2023-11-18T16:45:21.233Z,64.25
2023-11-18T16:47:52.228Z,63.97
2023-11-18T16:50:20.513Z,64.66
2023-11-18T16:52:49.087Z,63.96
2023-11-18T16:55:16.504Z,64.64
2023-11-18T16:57:43.487Z,64.16
2023-11-18T17:00:17.950Z,63.68
2023-11-18T17:02:59.426Z,63.82
2023-11-18T17:05:29.710Z,63.66
2023-11-18T17:07:57.087Z,63.55
2023-11-18T17:10:24.434Z,63.32
2023-11-18T17:12:52.595Z,63.40
2023-11-18T17:15:20.157Z,63.47
2023-11-18T17:17:48.438Z,63.38
2023-11-18T17:20:16.291Z,63.37
2023-11-18T17:22:43.899Z,63.36
2023-11-18T17:25:14.602Z,63.14
2023-11-18T17:27:41.948Z,63.22
2023-11-18T17:30:19.694Z,63.22
2023-11-18T17:32:48.389Z,63.43
2023-11-18T17:35:20.125Z,62.96
2023-11-18T17:37:47.795Z,63.47
2023-11-18T17:40:24.738Z,62.44
2023-11-18T17:42:55.171Z,62.69
2023-11-18T17:45:22.574Z,62.42
2023-11-18T17:47:49.809Z,62.90
2023-11-18T17:50:18.824Z,62.13
2023-11-18T17:52:48.105Z,62.60
2023-11-18T17:55:16.333Z,62.42
2023-11-18T17:57:43.829Z,62.10
2023-11-18T18:00:14.426Z,62.01
2023-11-18T18:02:42.455Z,62.11
2023-11-18T18:05:10.160Z,62.18
2023-11-18T18:07:37.535Z,61.82
2023-11-18T18:10:05.141Z,61.76
2023-11-18T18:12:32.929Z,61.24
2023-11-18T18:14:59.854Z,61.49
2023-11-18T18:17:27.532Z,61.59
2023-11-18T18:19:54.738Z,61.51
2023-11-18T18:22:21.704Z,62.13
2023-11-18T18:24:48.762Z,61.75
2023-11-18T18:27:15.615Z,61.74
2023-11-18T18:29:42.534Z,61.72
2023-11-18T18:32:11.825Z,62.56
2023-11-18T18:34:38.900Z,62.38
2023-11-18T18:37:05.965Z,62.59
2023-11-18T18:39:32.923Z,62.98
2023-11-18T18:42:00.405Z,62.79
2023-11-18T18:44:28.209Z,63.19
2023-11-18T18:46:55.817Z,63.47
2023-11-18T18:49:22.731Z,63.94
2023-11-18T18:51:49.928Z,63.77
2023-11-18T18:54:16.874Z,63.49
2023-11-18T18:56:44.120Z,63.64
2023-11-18T18:59:12.651Z,64.41
2023-11-18T19:01:40.799Z,64.06
2023-11-18T19:04:09.453Z,64.39
2023-11-18T19:06:37.391Z,64.69
2023-11-18T19:09:05.381Z,64.99
2023-11-18T19:11:32.694Z,64.89
2023-11-18T19:14:00.162Z,65.26
2023-11-18T19:16:27.629Z,64.91
2023-11-18T19:18:56.976Z,65.28
2023-11-18T19:21:29.710Z,65.50
2023-11-18T19:23:57.647Z,65.27
2023-11-18T19:26:24.789Z,65.64
2023-11-18T19:28:51.802Z,65.56
2023-11-18T19:31:18.795Z,65.50
2023-11-18T19:33:45.896Z,65.75
2023-11-18T19:36:13.188Z,66.03
2023-11-18T19:38:40.446Z,66.16
2023-11-18T19:41:07.733Z,66.56
2023-11-18T19:43:34.784Z,66.58
2023-11-18T19:46:02.133Z,66.39
2023-11-18T19:48:32.799Z,66.56
2023-11-18T19:51:00.031Z,66.53
2023-11-18T19:53:27.496Z,66.20
2023-11-18T19:55:54.614Z,66.81
2023-11-18T19:58:23.502Z,66.69
2023-11-18T20:00:54.068Z,66.19
2023-11-18T20:03:23.812Z,66.51
2023-11-18T20:05:51.237Z,66.72
2023-11-18T20:08:21.026Z,66.86
2023-11-18T20:10:48.646Z,66.33
2023-11-18T20:13:16.346Z,66.79
2023-11-18T20:15:43.285Z,66.14
2023-11-18T20:18:13.178Z,66.19
2023-11-18T20:20:40.282Z,65.99
2023-11-18T20:23:07.555Z,66.18
2023-11-18T20:25:36.246Z,66.21
2023-11-18T20:28:04.627Z,66.26
2023-11-18T20:30:31.779Z,66.08
2023-11-18T20:32:58.998Z,66.06
2023-11-18T20:35:26.484Z,65.99
2023-11-18T20:37:53.591Z,66.03
2023-11-18T20:40:23.378Z,66.12
2023-11-18T20:42:51.156Z,66.34
2023-11-18T20:45:19.982Z,66.27
2023-11-18T20:47:48.331Z,65.62
2023-11-18T20:50:15.982Z,65.57
2023-11-18T20:52:43.434Z,65.72
2023-11-18T20:55:10.602Z,65.49
2023-11-18T20:57:40.725Z,65.42
2023-11-18T21:00:09.998Z,65.21
2023-11-18T21:02:39.724Z,65.39
2023-11-18T21:05:09.432Z,65.31
2023-11-18T21:07:36.613Z,65.32
2023-11-18T21:10:06.039Z,65.61
2023-11-18T21:12:33.817Z,65.61
2023-11-18T21:15:03.249Z,65.44
2023-11-18T21:17:30.530Z,64.93
2023-11-18T21:19:57.973Z,64.99
2023-11-18T21:22:24.865Z,64.96
2023-11-18T21:24:52.271Z,65.51
2023-11-18T21:27:19.237Z,65.10
2023-11-18T21:29:47.343Z,65.20
2023-11-18T21:32:14.584Z,64.86
2023-11-18T21:34:42.225Z,64.83
2023-11-18T21:37:12.344Z,64.58
2023-11-18T21:39:42.480Z,64.85
2023-11-18T21:42:09.938Z,64.80
2023-11-18T21:44:36.900Z,64.78
2023-11-18T21:47:04.371Z,64.83
2023-11-18T21:49:31.520Z,64.74
2023-11-18T21:51:58.619Z,64.73
2023-11-18T21:54:26.378Z,64.93
2023-11-18T21:56:53.451Z,64.95
2023-11-18T21:59:20.256Z,64.88
2023-11-18T22:01:47.148Z,64.53
2023-11-18T22:04:14.272Z,65.00
2023-11-18T22:06:41.082Z,64.81
2023-11-18T22:09:08.505Z,64.40
2023-11-18T22:11:37.751Z,64.05
2023-11-18T22:14:04.793Z,63.84
2023-11-18T22:16:31.604Z,64.47
2023-11-18T22:18:59.272Z,64.55
2023-11-18T22:21:28.382Z,64.58
2023-11-18T22:23:55.090Z,64.53
2023-11-18T22:26:23.278Z,64.59
2023-11-18T22:28:50.363Z,64.87
2023-11-18T22:31:18.027Z,64.44
2023-11-18T22:33:44.891Z,64.56
2023-11-18T22:36:11.617Z,64.92
2023-11-18T22:38:39.387Z,64.78
2023-11-18T22:41:08.894Z,64.35
2023-11-18T22:43:35.659Z,64.64
2023-11-18T22:46:02.970Z,64.55
2023-11-18T22:48:29.973Z,64.13
2023-11-18T22:50:57.057Z,64.46
2023-11-18T22:53:23.833Z,64.42
2023-11-18T22:55:52.191Z,64.74
2023-11-18T22:58:19.100Z,64.76
2023-11-18T23:00:52.865Z,64.41
2023-11-18T23:03:20.284Z,64.41
2023-11-18T23:05:47.585Z,64.25
2023-11-18T23:08:23.457Z,64.45
2023-11-18T23:10:50.750Z,64.57
2023-11-18T23:13:19.511Z,64.99
2023-11-18T23:15:47.900Z,64.73
2023-11-18T23:18:15.832Z,64.55
2023-11-18T23:20:42.669Z,64.69
2023-11-18T23:23:09.574Z,65.01
2023-11-18T23:25:36.712Z,65.30
2023-11-18T23:28:06.224Z,65.53
2023-11-18T23:30:33.161Z,65.49
2023-11-18T23:33:00.064Z,65.73
2023-11-18T23:35:29.497Z,65.74
2023-11-18T23:37:57.388Z,65.78
2023-11-18T23:40:24.460Z,65.96
2023-11-18T23:42:52.093Z,66.07
2023-11-18T23:45:20.094Z,66.20
2023-11-18T23:47:51.982Z,66.33
2023-11-18T23:50:19.521Z,66.56
2023-11-18T23:52:46.263Z,66.48
2023-11-18T23:55:16.553Z,66.57
2023-11-18T23:57:43.570Z,66.80
